createdAt,value
2022-11-14T00:04:19.205Z,101828.69
2022-11-14T00:07:06.215Z,101822.59
2022-11-14T00:09:53.456Z,101830.41
2022-11-14T00:12:40.373Z,101820.84
2022-11-14T00:15:27.904Z,101825.19
2022-11-14T00:18:15.013Z,101824.22
2022-11-14T00:21:03.787Z,101816.31
2022-11-14T00:23:51.075Z,101824.31
2022-11-14T00:26:38.683Z,101821.69
2022-11-14T00:29:25.455Z,101815.47
2022-11-14T00:32:12.887Z,101812.88
2022-11-14T00:34:59.932Z,101806.91
2022-11-14T00:37:48.787Z,101811.81
2022-11-14T00:40:35.717Z,101813.72
2022-11-14T00:43:23.249Z,101819.91
2022-11-14T00:46:10.210Z,101821.81
2022-11-14T00:48:57.645Z,101812.13
2022-11-14T00:51:44.554Z,101815.66
2022-11-14T00:54:33.181Z,101810.22
2022-11-14T00:57:20.301Z,101802.59
2022-11-14T01:00:10.009Z,101801.91
2022-11-14T01:02:58.340Z,101792.28
2022-11-14T01:05:49.017Z,101791.41
2022-11-14T01:08:36.476Z,101797.63
2022-11-14T01:11:25.248Z,101791.88
2022-11-14T01:14:12.404Z,101790.88
2022-11-14T01:16:59.775Z,101787.44
2022-11-14T01:19:46.653Z,101781.97
2022-11-14T01:22:34.218Z,101776.91
2022-11-14T01:25:21.512Z,101769.94
2022-11-14T01:28:14.035Z,101766.72
2022-11-14T01:31:11.458Z,101760.53
2022-11-14T01:33:58.615Z,101753.81
2022-11-14T01:36:45.740Z,101760.34
2022-11-14T01:41:15.538Z,101772.00
2022-11-14T01:44:04.441Z,101763.94
2022-11-14T01:46:57.902Z,101761.59
2022-11-14T01:49:51.275Z,101750.06
2022-11-14T01:52:42.168Z,101749.97
2022-11-14T01:55:29.498Z,101749.19
2022-11-14T01:58:18.097Z,101745.53
2022-11-14T02:01:06.875Z,101744.75
2022-11-14T02:03:56.991Z,101744.66
2022-11-14T02:06:45.611Z,101737.53
2022-11-14T02:09:38.468Z,101736.09
2022-11-14T02:12:25.612Z,101740.25
2022-11-14T02:15:14.928Z,101734.28
2022-11-14T02:18:04.024Z,101734.50
2022-11-14T02:20:52.475Z,101738.72
2022-11-14T02:23:39.310Z,101730.00
2022-11-14T02:26:26.954Z,101725.72
2022-11-14T02:29:14.121Z,101724.03
2022-11-14T02:32:02.535Z,101726.50
2022-11-14T02:34:51.657Z,101722.44
2022-11-14T02:37:41.786Z,101725.72
2022-11-14T02:40:28.631Z,101723.50
2022-11-14T02:43:15.946Z,101722.69
2022-11-14T02:46:05.828Z,101721.78
2022-11-14T02:48:53.484Z,101719.16
2022-11-14T02:51:41.292Z,101711.44
2022-11-14T02:54:29.759Z,101718.28
2022-11-14T02:57:16.615Z,101708.66
2022-11-14T03:00:06.721Z,101708.66
2022-11-14T03:02:56.027Z,101703.59
2022-11-14T03:05:43.590Z,101705.19
2022-11-14T03:08:31.350Z,101701.00
2022-11-14T03:11:20.371Z,101707.84
2022-11-14T03:14:07.746Z,101696.72
2022-11-14T03:16:56.592Z,101694.19
2022-11-14T03:19:43.744Z,101701.00
2022-11-14T03:22:31.198Z,101695.59
2022-11-14T03:25:18.470Z,101690.69
2022-11-14T03:28:07.514Z,101683.94
2022-11-14T03:30:54.477Z,101692.09
2022-11-14T03:33:41.950Z,101693.81
2022-11-14T03:36:29.276Z,101682.31
2022-11-14T03:39:16.891Z,101690.50
2022-11-14T03:42:05.472Z,101685.31
2022-11-14T03:44:54.071Z,101686.25
2022-11-14T03:52:31.949Z,101684.44
2022-11-14T03:55:18.656Z,101679.09
2022-11-14T03:58:06.317Z,101678.31
2022-11-14T04:00:55.972Z,101682.66
2022-11-14T04:03:43.436Z,101675.69
2022-11-14T04:06:30.386Z,101672.06
2022-11-14T04:09:17.883Z,101666.94
2022-11-14T04:12:05.348Z,101666.25
2022-11-14T04:14:52.533Z,101660.13
2022-11-14T04:17:41.177Z,101666.44
2022-11-14T04:20:28.730Z,101652.50
2022-11-14T04:23:15.562Z,101656.66
2022-11-14T04:26:03.124Z,101648.91
2022-11-14T04:28:50.196Z,101655.16
2022-11-14T04:31:37.666Z,101661.44
2022-11-14T04:34:25.771Z,101655.91
2022-11-14T04:37:13.253Z,101653.16
2022-11-14T04:40:02.608Z,101655.91
2022-11-14T04:42:50.370Z,101655.91
2022-11-14T04:45:37.738Z,101647.09
2022-11-14T04:48:25.208Z,101633.97
2022-11-14T04:51:13.919Z,101644.28
2022-11-14T04:54:01.212Z,101640.88
2022-11-14T04:56:48.079Z,101642.59
2022-11-14T04:59:35.733Z,101636.56
2022-11-14T05:02:22.585Z,101635.06
2022-11-14T05:05:10.638Z,101629.09
2022-11-14T05:07:59.241Z,101636.75
2022-11-14T05:10:47.467Z,101642.78
2022-11-14T05:13:34.766Z,101639.25
2022-11-14T05:16:22.225Z,101645.34
2022-11-14T05:19:09.151Z,101637.66
2022-11-14T05:21:56.508Z,101637.59
2022-11-14T05:24:44.991Z,101638.41
2022-11-14T05:27:32.870Z,101635.81
2022-11-14T05:30:20.535Z,101637.47
2022-11-14T05:33:07.821Z,101633.13
2022-11-14T05:35:54.698Z,101636.53
2022-11-14T05:38:43.083Z,101636.53
2022-11-14T05:41:31.633Z,101634.88
2022-11-14T05:44:19.000Z,101633.03
2022-11-14T05:47:06.603Z,101627.97
2022-11-14T05:49:54.301Z,101625.16
2022-11-14T05:52:41.321Z,101631.94
2022-11-14T05:55:28.724Z,101631.16
2022-11-14T05:58:17.033Z,101631.34
2022-11-14T06:01:06.681Z,101635.69
2022-11-14T06:03:53.619Z,101635.63
2022-11-14T06:06:41.159Z,101632.97
2022-11-14T06:14:20.486Z,101643.50
2022-11-14T06:17:07.431Z,101646.94
2022-11-14T06:19:54.924Z,101650.38
2022-11-14T06:22:41.981Z,101645.88
2022-11-14T06:25:29.291Z,101640.88
2022-11-14T06:28:16.683Z,101640.81
2022-11-14T06:31:06.595Z,101647.66
2022-11-14T06:33:54.555Z,101647.50
2022-11-14T06:36:42.100Z,101649.09
2022-11-14T06:39:28.959Z,101645.69
2022-11-14T06:42:17.615Z,101658.97
2022-11-14T06:45:05.333Z,101643.97
2022-11-14T06:47:54.146Z,101652.66
2022-11-14T06:50:41.163Z,101664.09
2022-11-14T06:53:32.054Z,101666.81
2022-11-14T06:56:21.250Z,101664.31
2022-11-14T06:59:08.482Z,101671.75
2022-11-14T07:01:55.504Z,101652.59
2022-11-14T07:04:44.157Z,101668.06
2022-11-14T07:07:32.015Z,101671.75
2022-11-14T07:10:19.438Z,101670.44
2022-11-14T07:13:06.503Z,101659.31
2022-11-14T07:15:54.766Z,101667.28
2022-11-14T07:18:42.346Z,101659.84
2022-11-14T07:21:32.574Z,101652.13
2022-11-14T07:24:19.644Z,101653.94
2022-11-14T07:27:09.360Z,101651.84
2022-11-14T07:29:56.781Z,101648.97
2022-11-14T07:32:44.298Z,101651.75
2022-11-14T07:35:31.576Z,101640.81
2022-11-14T07:38:20.340Z,101640.53
2022-11-14T07:41:11.213Z,101640.41
2022-11-14T07:43:58.636Z,101644.28
2022-11-14T07:51:38.614Z,101643.16
2022-11-14T07:54:27.950Z,101629.28
2022-11-14T07:57:15.158Z,101641.63
2022-11-14T08:00:02.236Z,101636.34
2022-11-14T08:02:49.779Z,101633.03
2022-11-14T08:05:37.439Z,101640.78
2022-11-14T08:08:24.943Z,101641.72
2022-11-14T08:11:15.104Z,101632.03
2022-11-14T08:14:10.601Z,101624.28
2022-11-14T08:16:58.050Z,101630.13
2022-11-14T08:19:45.169Z,101629.97
2022-11-14T08:22:32.192Z,101633.28
2022-11-14T08:30:13.743Z,101619.31
2022-11-14T08:33:04.420Z,101620.09
2022-11-14T08:35:52.056Z,101619.06
2022-11-14T08:38:39.240Z,101615.44
2022-11-14T08:41:26.414Z,101612.72
2022-11-14T08:44:13.522Z,101622.91
2022-11-14T08:47:03.815Z,101610.13
2022-11-14T08:49:51.018Z,101607.00
2022-11-14T08:52:38.704Z,101604.59
2022-11-14T08:55:25.717Z,101599.88
2022-11-14T08:58:13.232Z,101604.75
2022-11-14T09:01:06.060Z,101607.00
2022-11-14T09:03:59.637Z,101598.31
2022-11-14T09:11:42.673Z,101596.56
2022-11-14T09:14:30.033Z,101584.88
2022-11-14T09:17:17.712Z,101585.59
2022-11-14T09:20:07.200Z,101588.69
2022-11-14T09:22:54.354Z,101571.16
2022-11-14T09:25:41.348Z,101566.25
2022-11-14T09:28:28.747Z,101579.38
2022-11-14T09:31:15.866Z,101571.03
2022-11-14T09:34:03.409Z,101580.19
2022-11-14T09:36:51.923Z,101571.16
2022-11-14T09:39:40.719Z,101572.00
2022-11-14T09:42:55.696Z,101574.31
2022-11-14T09:45:50.575Z,101571.41
2022-11-14T09:48:37.992Z,101566.94
2022-11-14T09:51:32.293Z,101563.34
2022-11-14T09:54:25.826Z,101563.16
2022-11-14T09:57:18.468Z,101563.91
2022-11-14T10:01:46.149Z,101563.16
2022-11-14T10:04:55.871Z,101553.75
2022-11-14T10:08:01.565Z,101556.13
2022-11-14T10:10:56.162Z,101557.63
2022-11-14T10:14:26.495Z,101539.34
2022-11-14T10:17:36.437Z,101550.91
2022-11-14T10:20:38.116Z,101546.88
2022-11-14T10:23:44.256Z,101547.88
2022-11-14T10:28:10.917Z,101549.38
2022-11-14T10:31:15.537Z,101525.06
2022-11-14T10:34:10.515Z,101536.03
2022-11-14T10:37:11.089Z,101527.13
2022-11-14T10:40:14.729Z,101536.34
2022-11-14T10:43:19.163Z,101541.72
2022-11-14T10:46:17.284Z,101525.31
2022-11-14T10:49:16.818Z,101523.56
2022-11-14T10:52:08.642Z,101526.38
2022-11-14T10:59:49.623Z,101501.00
2022-11-14T11:02:53.562Z,101503.63
2022-11-14T11:05:50.558Z,101485.66
2022-11-14T11:09:01.262Z,101487.03
2022-11-14T11:11:57.247Z,101483.50
2022-11-14T11:14:46.062Z,101490.91
2022-11-14T11:17:38.484Z,101483.09
2022-11-14T11:20:33.672Z,101467.19
2022-11-14T11:23:27.153Z,101470.81
2022-11-14T11:27:53.215Z,101469.63
2022-11-14T11:30:41.772Z,101457.00
2022-11-14T11:33:31.771Z,101457.56
2022-11-14T11:36:26.034Z,101454.94
2022-11-14T11:39:26.396Z,101450.69
2022-11-14T11:42:21.773Z,101443.78
2022-11-14T11:45:18.053Z,101438.31
2022-11-14T11:48:17.622Z,101435.75
2022-11-14T11:51:11.605Z,101438.63
2022-11-14T11:54:10.253Z,101440.47
2022-11-14T12:01:52.793Z,101430.34
2022-11-14T12:04:40.318Z,101428.94
2022-11-14T12:07:46.085Z,101430.00
2022-11-14T12:10:40.325Z,101427.06
2022-11-14T12:14:09.466Z,101436.84
2022-11-14T12:18:36.150Z,101428.44
2022-11-14T12:21:46.704Z,101427.06
2022-11-14T12:25:01.627Z,101434.28
2022-11-14T12:28:09.858Z,101429.56
2022-11-14T12:31:02.361Z,101430.03
2022-11-14T12:33:59.687Z,101426.59
2022-11-14T12:36:47.755Z,101432.06
2022-11-14T12:39:35.125Z,101432.03
2022-11-14T12:42:23.595Z,101428.78
2022-11-14T12:46:01.783Z,101440.81
2022-11-14T12:48:49.138Z,101437.63
2022-11-14T12:57:02.671Z,101443.72
2022-11-14T13:00:05.302Z,101430.59
2022-11-14T13:03:33.682Z,101427.78
2022-11-14T13:06:26.750Z,101436.50
2022-11-14T13:09:54.759Z,101435.75
2022-11-14T13:13:01.902Z,101430.59
2022-11-14T13:16:10.903Z,101427.97
2022-11-14T13:19:33.859Z,101432.13
2022-11-14T13:22:40.950Z,101426.94
2022-11-14T13:25:29.188Z,101436.78
2022-11-14T13:28:49.973Z,101423.66
2022-11-14T13:31:52.296Z,101413.72
2022-11-14T13:34:52.641Z,101415.44
2022-11-14T13:38:03.693Z,101418.16
2022-11-14T13:41:06.760Z,101417.84
2022-11-14T13:44:16.925Z,101428.34
2022-11-14T13:47:50.930Z,101413.19
2022-11-14T13:50:43.100Z,101407.88
2022-11-14T13:53:33.440Z,101412.59
2022-11-14T13:56:36.453Z,101413.47
2022-11-14T14:00:07.310Z,101399.97
2022-11-14T14:03:24.837Z,101401.31
2022-11-14T14:06:36.945Z,101398.03
2022-11-14T14:09:38.635Z,101394.19
2022-11-14T14:12:55.904Z,101391.97
2022-11-14T14:15:55.095Z,101385.91
2022-11-14T14:19:00.961Z,101381.13
2022-11-14T14:22:01.543Z,101377.09
2022-11-14T14:24:59.677Z,101372.75
2022-11-14T14:28:07.241Z,101382.91
2022-11-14T14:31:12.567Z,101374.38
2022-11-14T14:34:00.036Z,101372.66
2022-11-14T14:36:53.680Z,101375.50
2022-11-14T14:39:41.300Z,101364.91
2022-11-14T14:42:37.154Z,101353.66
2022-11-14T14:45:29.370Z,101361.28
2022-11-14T14:48:22.437Z,101352.16
2022-11-14T14:51:15.635Z,101349.56
2022-11-14T14:54:07.731Z,101349.56
2022-11-14T14:57:00.128Z,101344.31
2022-11-14T14:59:47.362Z,101338.25
2022-11-14T15:02:35.436Z,101343.75
2022-11-14T15:05:24.944Z,101347.69
2022-11-14T15:08:16.716Z,101351.81
2022-11-14T15:11:07.068Z,101337.72
2022-11-14T15:13:58.454Z,101335.94
2022-11-14T15:16:50.158Z,101344.47
2022-11-14T15:19:43.119Z,101340.88
2022-11-14T15:22:30.195Z,101328.16
2022-11-14T15:25:22.755Z,101324.28
2022-11-14T15:28:22.127Z,101326.53
2022-11-14T15:31:20.757Z,101320.75
2022-11-14T15:34:25.393Z,101327.06
2022-11-14T15:37:24.468Z,101315.81
2022-11-14T15:40:21.249Z,101315.75
2022-11-14T15:43:50.480Z,101311.22
2022-11-14T15:46:47.227Z,101304.19
2022-11-14T15:49:35.748Z,101304.25
2022-11-14T15:57:18.174Z,101291.31
2022-11-14T16:00:08.768Z,101300.53
2022-11-14T16:02:58.571Z,101298.28
2022-11-14T16:05:47.015Z,101293.72
2022-11-14T16:08:34.472Z,101294.72
2022-11-14T16:11:21.480Z,101287.88
2022-11-14T16:14:08.874Z,101287.97
2022-11-14T16:16:56.991Z,101277.97
2022-11-14T16:19:45.261Z,101274.47
2022-11-14T16:22:32.740Z,101271.06
2022-11-14T16:25:24.176Z,101266.63
2022-11-14T16:28:11.259Z,101265.19
2022-11-14T16:30:58.995Z,101267.56
2022-11-14T16:38:38.243Z,101268.34
2022-11-14T16:41:25.362Z,101259.19
2022-11-14T16:44:17.660Z,101250.75
2022-11-14T16:47:04.858Z,101251.44
2022-11-14T16:49:53.052Z,101263.81
2022-11-14T16:52:40.579Z,101268.31
2022-11-14T16:55:29.366Z,101266.03
2022-11-14T16:58:16.246Z,101259.38
2022-11-14T17:01:04.991Z,101263.03
2022-11-14T17:03:53.462Z,101250.75
2022-11-14T17:06:40.971Z,101260.38
2022-11-14T17:09:28.496Z,101252.63
2022-11-14T17:12:17.507Z,101255.09
2022-11-14T17:15:05.454Z,101244.84
2022-11-14T17:17:52.729Z,101252.19
2022-11-14T17:20:40.009Z,101249.59
2022-11-14T17:23:27.455Z,101241.88
2022-11-14T17:31:12.068Z,101224.00
2022-11-14T17:34:01.155Z,101221.44
2022-11-14T17:36:48.920Z,101222.22
2022-11-14T17:39:36.020Z,101214.56
2022-11-14T17:42:23.437Z,101225.78
2022-11-14T17:45:11.135Z,101211.13
2022-11-14T17:47:59.733Z,101217.16
2022-11-14T17:50:46.616Z,101214.81
2022-11-14T17:53:34.736Z,101214.47
2022-11-14T17:56:24.643Z,101215.13
2022-11-14T17:59:12.281Z,101207.28
2022-11-14T18:06:52.801Z,101211.22
2022-11-14T18:09:41.425Z,101211.31
2022-11-14T18:12:29.281Z,101211.97
2022-11-14T18:15:17.040Z,101215.31
2022-11-14T18:18:04.919Z,101201.03
2022-11-14T18:20:52.199Z,101196.00
2022-11-14T18:23:41.240Z,101202.31
2022-11-14T18:31:20.317Z,101189.94
2022-11-14T18:34:07.713Z,101171.56
2022-11-14T18:36:55.246Z,101189.47
2022-11-14T18:39:43.471Z,101192.25
2022-11-14T18:42:32.238Z,101185.00
2022-11-14T18:45:19.662Z,101188.41
2022-11-14T18:48:08.056Z,101190.03
2022-11-14T18:51:01.034Z,101183.94
2022-11-14T18:53:48.779Z,101175.06
2022-11-14T18:56:37.649Z,101169.97
2022-11-14T19:04:19.762Z,101167.47
2022-11-14T19:07:07.203Z,101166.13
2022-11-14T19:09:54.617Z,101165.59
2022-11-14T19:12:42.901Z,101174.38
2022-11-14T19:15:30.453Z,101161.31
2022-11-14T19:18:17.641Z,101167.56
2022-11-14T19:21:06.185Z,101178.50
2022-11-14T19:23:53.872Z,101162.19
2022-11-14T19:31:33.211Z,101156.28
2022-11-14T19:34:20.433Z,101147.38
2022-11-14T19:37:07.913Z,101151.91
2022-11-14T19:39:55.602Z,101144.28
2022-11-14T19:42:43.363Z,101146.19
2022-11-14T19:45:30.273Z,101145.34
2022-11-14T19:48:19.280Z,101144.22
2022-11-14T19:51:08.720Z,101147.53
2022-11-14T19:53:58.236Z,101123.38
2022-11-14T19:56:45.670Z,101133.84
2022-11-14T19:59:33.242Z,101125.06
2022-11-14T20:02:20.173Z,101110.56
2022-11-14T20:05:10.821Z,101120.59
2022-11-14T20:07:58.021Z,101113.84
2022-11-14T20:10:57.075Z,101111.06
2022-11-14T20:13:44.675Z,101113.50
2022-11-14T20:16:34.917Z,101104.88
2022-11-14T20:19:22.172Z,101107.91
2022-11-14T20:22:11.258Z,101113.44
2022-11-14T20:24:58.501Z,101098.81
2022-11-14T20:27:46.049Z,101100.41
2022-11-14T20:30:33.030Z,101098.75
2022-11-14T20:33:20.731Z,101086.03
2022-11-14T20:36:12.259Z,101101.59
2022-11-14T20:39:01.136Z,101078.25
2022-11-14T20:41:48.443Z,101089.09
2022-11-14T20:44:35.970Z,101070.78
2022-11-14T20:47:23.296Z,101070.72
2022-11-14T20:50:11.328Z,101075.13
2022-11-14T20:52:58.242Z,101065.56
2022-11-14T20:55:53.635Z,101060.34
2022-11-14T20:58:42.191Z,101055.22
2022-11-14T21:01:29.779Z,101055.22
2022-11-14T21:04:17.370Z,101044.25
2022-11-14T21:07:04.590Z,101043.06
2022-11-14T21:10:12.927Z,101041.50
2022-11-14T21:13:19.380Z,101040.75
2022-11-14T21:16:10.138Z,101040.75
2022-11-14T21:18:58.830Z,101043.41
2022-11-14T21:21:46.224Z,101044.38
2022-11-14T21:24:38.395Z,101050.91
2022-11-14T21:27:26.749Z,101046.72
2022-11-14T21:30:16.150Z,101037.31
2022-11-14T21:33:03.432Z,101028.66
2022-11-14T21:35:51.063Z,101040.03
2022-11-14T21:38:37.996Z,101035.00
2022-11-14T21:41:28.037Z,101025.25
2022-11-14T21:44:18.996Z,101039.16
2022-11-14T21:47:07.861Z,101020.97
2022-11-14T21:50:00.895Z,101027.97
2022-11-14T21:52:48.678Z,101019.03
2022-11-14T21:55:35.634Z,101020.78
2022-11-14T21:58:23.097Z,101021.44
2022-11-14T22:01:12.968Z,101024.31
2022-11-14T22:04:12.490Z,101023.78
2022-11-14T22:07:00.209Z,101014.97
2022-11-14T22:09:47.484Z,101010.06
2022-11-14T22:12:35.343Z,101012.31
2022-11-14T22:15:22.491Z,101009.69
2022-11-14T22:18:09.384Z,101005.72
2022-11-14T22:20:59.661Z,101008.88
2022-11-14T22:23:46.678Z,101006.25
2022-11-14T22:26:36.471Z,101009.38
2022-11-14T22:29:23.521Z,101004.38
2022-11-14T22:32:11.007Z,100997.31
2022-11-14T22:34:57.733Z,101006.03
2022-11-14T22:37:46.410Z,101005.03
2022-11-14T22:40:33.235Z,100994.13
2022-11-14T22:43:22.416Z,100995.09
2022-11-14T22:46:11.197Z,100987.19
2022-11-14T22:48:59.305Z,100992.38
2022-11-14T22:51:46.152Z,100982.72
2022-11-14T22:54:35.020Z,100984.50
2022-11-14T22:57:22.171Z,100966.28
2022-11-14T23:00:11.935Z,100974.66
2022-11-14T23:02:59.196Z,100965.91
2022-11-14T23:05:47.434Z,100967.03
2022-11-14T23:08:36.164Z,100957.47
2022-11-14T23:11:28.399Z,100959.88
2022-11-14T23:14:15.649Z,100949.53
2022-11-14T23:17:02.866Z,100953.28
2022-11-14T23:19:49.681Z,100949.84
2022-11-14T23:22:37.251Z,100943.59
2022-11-14T23:25:25.253Z,100942.06
2022-11-14T23:28:13.894Z,100944.06
2022-11-14T23:31:02.567Z,100940.19
2022-11-14T23:33:52.416Z,100946.56
2022-11-14T23:36:39.650Z,100943.75
2022-11-14T23:39:27.005Z,100939.47
2022-11-14T23:42:14.192Z,100942.38
2022-11-14T23:49:53.706Z,100928.78
2022-11-14T23:52:40.868Z,100927.03
2022-11-14T23:55:28.186Z,100925.22
2022-11-14T23:58:15.254Z,100913.13
